石垣島の過去48時間の天気

石垣島 (Ishigaki jima)

現在時刻: 3/22 10:01 JST (3/22 01:01 UTC) 以下の時間は現地時間です。

過去48時間のMETAR気象情報
時間 風向 風速(m/s) 視程 気温(℃) 湿度(%) 気圧(hPa) 天気現象
22 09:00 北東 8 10km以上 24 89 1014
22 08:00 北北東 6 10km以上 23 94 1013 弱いしゅう雨
22 07:00 静穏 0 10km以上 22 100 1012
22 06:00 不定 1 10km以上 22 100 1012
ROIG 220000Z 04016KT 9999 FEW009 SCT015 24/22 Q1014
ROIG 212300Z 02012KT 9999 -SHRA FEW009 BKN016 23/22 Q1013
ROIG 212200Z 00000KT 9999 FEW015 22/22 Q1012
ROIG 212100Z VRB02KT 9999 FEW010 22/22 Q1012